TimeCDT,TemperatureF,Dew PointF,Humidity,Sea Level PressureIn,VisibilityMPH,Wind Direction,Wind SpeedMPH,Gust SpeedMPH,PrecipitationIn,Events,Conditions,WindDirDegrees,DateUTC
12:15 AM,53.6,42.8,67,29.85,10.0,SSE,16.1,23.0,N/A,,Clear,160,2013-04-06 05:15:00
12:35 AM,51.8,42.8,71,29.85,10.0,SSE,16.1,-,N/A,,Clear,160,2013-04-06 05:35:00
12:55 AM,53.6,42.8,67,29.85,10.0,SSE,13.8,-,N/A,,Clear,160,2013-04-06 05:55:00
1:15 AM,53.6,42.8,67,29.86,10.0,SSE,12.7,-,N/A,,Clear,160,2013-04-06 06:15:00
1:35 AM,53.6,42.8,67,29.85,10.0,South,18.4,24.2,N/A,,Clear,170,2013-04-06 06:35:00
1:55 AM,55.4,42.8,63,29.85,10.0,South,18.4,25.3,N/A,,Clear,170,2013-04-06 06:55:00
2:15 AM,55.4,42.8,63,29.85,10.0,South,19.6,26.5,N/A,,Clear,170,2013-04-06 07:15:00
2:35 AM,53.6,42.8,67,29.85,10.0,South,16.1,20.7,N/A,,Clear,170,2013-04-06 07:35:00
2:55 AM,53.6,42.8,67,29.85,10.0,South,16.1,20.7,N/A,,Clear,170,2013-04-06 07:55:00
3:15 AM,53.6,42.8,67,29.84,10.0,South,16.1,23.0,N/A,,Clear,170,2013-04-06 08:15:00
3:35 AM,53.6,42.8,67,29.83,10.0,SSE,15.0,-,N/A,,Clear,160,2013-04-06 08:35:00
3:55 AM,53.6,42.8,67,29.82,10.0,South,17.3,-,N/A,,Clear,170,2013-04-06 08:55:00
4:15 AM,51.8,42.8,71,29.81,10.0,South,18.4,-,N/A,,Clear,170,2013-04-06 09:15:00
4:35 AM,51.8,42.8,71,29.81,10.0,SSE,19.6,25.3,N/A,,Clear,160,2013-04-06 09:35:00
4:55 AM,51.8,42.8,71,29.80,10.0,SSE,18.4,-,N/A,,Clear,160,2013-04-06 09:55:00
5:15 AM,51.8,42.8,71,29.78,10.0,South,18.4,-,N/A,,Clear,170,2013-04-06 10:15:00
5:35 AM,50.0,42.8,76,29.78,10.0,South,18.4,26.5,N/A,,Clear,170,2013-04-06 10:35:00
5:55 AM,50.0,42.8,76,29.77,10.0,SSE,18.4,24.2,N/A,,Clear,160,2013-04-06 10:55:00
6:15 AM,50.0,42.8,76,29.77,10.0,SSE,16.1,-,N/A,,Clear,160,2013-04-06 11:15:00
6:35 AM,50.0,42.8,76,29.78,10.0,SSE,13.8,18.4,N/A,,Clear,150,2013-04-06 11:35:00
6:55 AM,50.0,42.8,76,29.82,10.0,South,5.8,9.2,N/A,,Clear,170,2013-04-06 11:55:00
7:15 AM,50.0,42.8,76,29.81,10.0,South,15.0,-,N/A,,Clear,180,2013-04-06 12:15:00
7:35 AM,50.0,42.8,76,29.82,10.0,South,8.1,-,N/A,,Clear,170,2013-04-06 12:35:00
7:55 AM,48.2,42.8,82,29.82,10.0,South,8.1,-,N/A,,Clear,180,2013-04-06 12:55:00
8:15 AM,50.0,42.8,76,29.82,10.0,South,10.4,-,N/A,,Clear,180,2013-04-06 13:15:00
8:35 AM,51.8,42.8,71,29.83,10.0,South,8.1,-,N/A,,Clear,180,2013-04-06 13:35:00
8:55 AM,51.8,44.6,76,29.84,10.0,South,6.9,-,N/A,,Clear,180,2013-04-06 13:55:00
9:15 AM,53.6,44.6,72,29.84,10.0,South,10.4,-,N/A,,Clear,180,2013-04-06 14:15:00
9:35 AM,55.4,44.6,67,29.85,10.0,South,9.2,16.1,N/A,,Clear,190,2013-04-06 14:35:00
9:55 AM,55.4,44.6,67,29.85,10.0,SSW,12.7,-,N/A,,Clear,210,2013-04-06 14:55:00
10:15 AM,59.0,44.6,59,29.85,10.0,SSW,12.7,-,N/A,,Clear,200,2013-04-06 15:15:00
10:35 AM,59.0,44.6,59,29.85,10.0,SSW,11.5,-,N/A,,Clear,210,2013-04-06 15:35:00
10:55 AM,60.8,44.6,55,29.85,10.0,SSW,12.7,-,N/A,,Clear,200,2013-04-06 15:55:00
11:15 AM,60.8,46.4,59,29.85,10.0,SSW,8.1,16.1,N/A,,Clear,200,2013-04-06 16:15:00
11:35 AM,62.6,46.4,55,29.85,10.0,SSW,8.1,-,N/A,,Clear,210,2013-04-06 16:35:00
11:55 AM,62.6,44.6,52,29.85,10.0,SSW,4.6,-,N/A,,Clear,200,2013-04-06 16:55:00
12:15 PM,64.4,44.6,49,29.86,10.0,SW,5.8,-,N/A,,Clear,220,2013-04-06 17:15:00
12:35 PM,64.4,42.8,45,29.86,10.0,Calm,Calm,-,N/A,,Clear,0,2013-04-06 17:35:00
12:55 PM,68.0,44.6,43,29.86,10.0,West,3.5,-,N/A,,Clear,270,2013-04-06 17:55:00
1:15 PM,68.0,42.8,40,29.85,10.0,Calm,Calm,-,N/A,,Clear,0,2013-04-06 18:15:00
1:35 PM,68.0,44.6,43,29.85,10.0,SSW,3.5,-,N/A,,Clear,200,2013-04-06 18:35:00
1:55 PM,68.0,42.8,40,29.85,10.0,Calm,Calm,-,N/A,,Clear,0,2013-04-06 18:55:00
2:15 PM,68.0,44.6,43,29.85,10.0,Calm,Calm,-,N/A,,Clear,0,2013-04-06 19:15:00
2:35 PM,69.8,44.6,40,29.84,10.0,Calm,Calm,-,N/A,,Clear,0,2013-04-06 19:35:00
2:55 PM,69.8,44.6,40,29.84,10.0,South,3.5,-,N/A,,Clear,190,2013-04-06 19:55:00
3:15 PM,71.6,44.6,38,29.84,10.0,SE,4.6,-,N/A,,Clear,140,2013-04-06 20:15:00
3:35 PM,71.6,44.6,38,29.83,10.0,South,6.9,-,N/A,,Clear,170,2013-04-06 20:35:00
3:55 PM,71.6,44.6,38,29.83,10.0,SE,6.9,-,N/A,,Clear,140,2013-04-06 20:55:00
4:15 PM,71.6,44.6,38,29.82,10.0,ESE,9.2,-,N/A,,Clear,120,2013-04-06 21:15:00
4:35 PM,71.6,46.4,41,29.82,10.0,SE,9.2,-,N/A,,Clear,130,2013-04-06 21:35:00
4:55 PM,69.8,46.4,43,29.81,10.0,South,10.4,-,N/A,,Clear,170,2013-04-06 21:55:00
5:15 PM,69.8,48.2,46,29.81,10.0,South,9.2,-,N/A,,Clear,170,2013-04-06 22:15:00
5:35 PM,68.0,48.2,49,29.82,10.0,South,10.4,-,N/A,,Clear,180,2013-04-06 22:35:00
5:55 PM,68.0,46.4,46,29.83,10.0,South,9.2,-,N/A,,Clear,170,2013-04-06 22:55:00
6:15 PM,68.0,50.0,52,29.82,10.0,South,10.4,-,N/A,,Clear,170,2013-04-06 23:15:00
6:35 PM,69.8,48.2,46,29.82,10.0,SSE,9.2,-,N/A,,Clear,160,2013-04-06 23:35:00
6:55 PM,68.0,48.2,49,29.82,10.0,South,8.1,-,N/A,,Clear,170,2013-04-06 23:55:00
7:15 PM,66.2,48.2,52,29.83,10.0,SSE,6.9,-,N/A,,Clear,160,2013-04-07 00:15:00
7:35 PM,64.4,50.0,59,29.83,10.0,South,5.8,-,N/A,,Clear,170,2013-04-07 00:35:00
7:55 PM,64.4,50.0,59,29.83,10.0,SSE,5.8,-,N/A,,Clear,160,2013-04-07 00:55:00
8:15 PM,62.6,50.0,63,29.83,10.0,SSE,5.8,-,N/A,,Clear,160,2013-04-07 01:15:00
8:35 PM,62.6,50.0,63,29.83,10.0,SSE,4.6,-,N/A,,Clear,150,2013-04-07 01:35:00
8:55 PM,60.8,50.0,68,29.84,10.0,SE,4.6,-,N/A,,Clear,140,2013-04-07 01:55:00
9:15 PM,60.8,50.0,68,29.84,10.0,East,4.6,-,N/A,,Clear,100,2013-04-07 02:15:00
9:35 PM,59.0,50.0,72,29.85,10.0,East,5.8,-,N/A,,Clear,90,2013-04-07 02:35:00
9:55 PM,59.0,50.0,72,29.86,10.0,East,5.8,-,N/A,,Clear,100,2013-04-07 02:55:00
10:15 PM,57.2,50.0,77,29.86,10.0,ESE,8.1,-,N/A,,Clear,110,2013-04-07 03:15:00
10:35 PM,57.2,48.2,72,29.87,10.0,SE,6.9,-,N/A,,Clear,140,2013-04-07 03:35:00
10:55 PM,59.0,46.4,63,29.87,10.0,SE,5.8,-,N/A,,Clear,130,2013-04-07 03:55:00
11:15 PM,57.2,46.4,67,29.87,10.0,Calm,Calm,-,N/A,,Clear,0,2013-04-07 04:15:00
11:35 PM,57.2,46.4,67,29.87,10.0,East,4.6,-,N/A,,Clear,100,2013-04-07 04:35:00
11:55 PM,57.2,46.4,67,29.87,10.0,ESE,4.6,-,N/A,,Clear,120,2013-04-07 04:55:00